createdAt,value
2019-01-24T00:01:12.721Z,-5.83
2019-01-24T00:03:42.478Z,-5.82
2019-01-24T00:06:11.881Z,-5.81
2019-01-24T00:08:41.222Z,-5.90
2019-01-24T00:11:10.555Z,-5.85
2019-01-24T00:13:39.926Z,-5.79
2019-01-24T00:16:09.255Z,-5.82
2019-01-24T00:18:38.995Z,-5.84
2019-01-24T00:21:08.716Z,-5.73
2019-01-24T00:23:38.050Z,-5.74
2019-01-24T00:26:07.382Z,-5.65
2019-01-24T00:28:37.116Z,-5.61
2019-01-24T00:31:06.822Z,-5.67
2019-01-24T00:33:36.195Z,-5.68
2019-01-24T00:36:05.841Z,-5.67
2019-01-24T00:38:35.549Z,-5.62
2019-01-24T00:41:05.239Z,-5.63
2019-01-24T00:43:34.651Z,-5.70
2019-01-24T00:46:04.198Z,-5.66
2019-01-24T00:48:33.873Z,-5.69
2019-01-24T00:51:03.207Z,-5.69
2019-01-24T00:53:32.598Z,-5.74
2019-01-24T00:56:01.939Z,-5.69
2019-01-24T00:58:31.599Z,-5.64
2019-01-24T01:01:00.919Z,-5.61
2019-01-24T01:03:30.254Z,-5.60
2019-01-24T01:05:59.862Z,-5.60
2019-01-24T01:08:29.198Z,-5.63
2019-01-24T01:10:59.085Z,-5.61
2019-01-24T01:13:28.692Z,-5.67
2019-01-24T01:15:58.401Z,-5.65
2019-01-24T01:18:27.994Z,-5.61
2019-01-24T01:20:57.423Z,-5.55
2019-01-24T01:23:26.776Z,-5.57
2019-01-24T01:25:56.118Z,-5.60
2019-01-24T01:28:25.827Z,-5.54
2019-01-24T01:30:55.588Z,-5.52
2019-01-24T01:33:24.971Z,-5.47
2019-01-24T01:35:54.751Z,-5.44
2019-01-24T01:38:24.125Z,-5.50
2019-01-24T01:40:53.854Z,-5.45
2019-01-24T01:43:23.238Z,-5.37
2019-01-24T01:45:53.003Z,-5.38
2019-01-24T01:48:22.371Z,-5.44
2019-01-24T01:50:51.719Z,-5.52
2019-01-24T01:53:21.049Z,-5.58
2019-01-24T01:55:50.419Z,-5.63
2019-01-24T01:58:20.070Z,-5.66
2019-01-24T02:00:49.414Z,-5.63
2019-01-24T02:03:19.076Z,-5.59
2019-01-24T02:05:48.429Z,-5.63
2019-01-24T02:08:18.136Z,-5.70
2019-01-24T02:10:47.921Z,-5.73
2019-01-24T02:13:17.259Z,-5.69
2019-01-24T02:15:46.903Z,-5.70
2019-01-24T02:18:16.543Z,-5.68
2019-01-24T02:20:46.234Z,-5.69
2019-01-24T02:23:15.583Z,-5.72
2019-01-24T02:25:44.920Z,-5.73
2019-01-24T02:28:14.240Z,-5.64
2019-01-24T02:30:43.588Z,-5.56
2019-01-24T02:33:12.973Z,-5.52
2019-01-24T02:35:42.612Z,-5.41
2019-01-24T02:38:12.251Z,-5.38
2019-01-24T02:40:42.040Z,-5.40
2019-01-24T02:43:11.396Z,-5.37
2019-01-24T02:45:40.767Z,-5.34
2019-01-24T02:48:10.167Z,-5.38
2019-01-24T02:50:39.520Z,-5.40
2019-01-24T02:53:08.879Z,-5.38
2019-01-24T02:55:38.562Z,-5.32
2019-01-24T02:58:07.896Z,-5.29
2019-01-24T03:00:37.244Z,-5.27
2019-01-24T03:03:06.568Z,-5.29
2019-01-24T03:05:36.308Z,-5.16
2019-01-24T03:08:05.632Z,-5.18
2019-01-24T03:10:34.979Z,-5.22
2019-01-24T03:13:04.304Z,-5.22
2019-01-24T03:15:33.694Z,-5.23
2019-01-24T03:18:03.056Z,-5.18
2019-01-24T03:20:32.394Z,-5.26
2019-01-24T03:23:02.076Z,-5.29
2019-01-24T03:25:31.418Z,-5.37
2019-01-24T03:28:00.742Z,-5.35
2019-01-24T03:30:30.097Z,-5.31
2019-01-24T03:32:59.434Z,-5.26
2019-01-24T03:35:29.098Z,-5.26
2019-01-24T03:37:58.820Z,-5.28
2019-01-24T03:40:28.516Z,-5.28
2019-01-24T03:42:57.852Z,-5.25
2019-01-24T03:45:27.201Z,-5.28
2019-01-24T03:47:56.655Z,-5.32
2019-01-24T03:50:26.074Z,-5.33
2019-01-24T03:52:55.434Z,-5.32
2019-01-24T03:55:24.795Z,-5.34
2019-01-24T03:57:54.211Z,-5.32
2019-01-24T04:00:25.601Z,-5.38
2019-01-24T04:02:55.031Z,-5.41
2019-01-24T04:05:24.366Z,-5.31
2019-01-24T04:07:53.981Z,-5.41
2019-01-24T04:10:23.683Z,-5.41
2019-01-24T04:12:53.417Z,-5.43
2019-01-24T04:15:25.965Z,-5.44
2019-01-24T04:17:55.290Z,-5.45
2019-01-24T04:20:24.604Z,-5.43
2019-01-24T04:22:53.978Z,-5.40
2019-01-24T04:25:23.321Z,-5.45
2019-01-24T04:27:52.657Z,-5.48
2019-01-24T04:30:23.025Z,-5.33
2019-01-24T04:32:52.691Z,-5.36
2019-01-24T04:35:22.402Z,-5.34
2019-01-24T04:37:51.724Z,-5.29
2019-01-24T04:40:21.469Z,-5.28
2019-01-24T04:42:51.123Z,-5.31
2019-01-24T04:45:20.486Z,-5.29
2019-01-24T04:47:49.801Z,-5.29
2019-01-24T04:50:19.525Z,-5.30
2019-01-24T04:52:49.239Z,-5.33
2019-01-24T04:55:19.903Z,-5.37
2019-01-24T04:57:49.430Z,-5.38
2019-01-24T05:00:25.659Z,-5.41
2019-01-24T05:02:55.000Z,-5.45
2019-01-24T05:05:27.861Z,-5.46
2019-01-24T05:07:55.814Z,-5.41
2019-01-24T05:10:25.124Z,-5.33
2019-01-24T05:12:54.848Z,-5.35
2019-01-24T05:15:24.552Z,-5.35
2019-01-24T05:17:54.163Z,-5.31
2019-01-24T05:20:23.554Z,-5.31
2019-01-24T05:22:52.888Z,-5.35
2019-01-24T05:25:22.318Z,-5.16
2019-01-24T05:27:51.767Z,-5.25
2019-01-24T05:30:24.220Z,-5.23
2019-01-24T05:32:55.269Z,-5.04
2019-01-24T05:35:24.864Z,-4.71
2019-01-24T05:37:54.203Z,-4.21
2019-01-24T05:40:23.590Z,-3.87
2019-01-24T05:42:53.235Z,-3.67
2019-01-24T05:45:22.584Z,-3.47
2019-01-24T05:47:52.251Z,-3.76
2019-01-24T05:50:21.625Z,-3.97
2019-01-24T05:52:50.967Z,-4.08
2019-01-24T05:55:20.303Z,-4.24
2019-01-24T05:57:49.655Z,-4.42
2019-01-24T06:00:22.359Z,-4.45
2019-01-24T06:02:53.198Z,-4.61
2019-01-24T06:05:22.560Z,-4.70
2019-01-24T06:07:51.924Z,-5.11
2019-01-24T06:10:21.502Z,-4.77
2019-01-24T06:12:51.125Z,-4.89
2019-01-24T06:15:20.732Z,-4.88
2019-01-24T06:17:50.323Z,-5.31
2019-01-24T06:20:19.700Z,-4.80
2019-01-24T06:22:49.083Z,-4.73
2019-01-24T06:25:18.461Z,-4.81
2019-01-24T06:27:47.784Z,-4.86
2019-01-24T06:30:23.053Z,-4.87
2019-01-24T06:32:52.679Z,-4.88
2019-01-24T06:35:22.030Z,-4.94
2019-01-24T06:37:51.357Z,-5.36
2019-01-24T06:40:20.980Z,-4.86
2019-01-24T06:42:50.324Z,-4.81
2019-01-24T06:45:22.511Z,-4.73
2019-01-24T06:47:51.879Z,-4.66
2019-01-24T06:50:21.562Z,-4.65
2019-01-24T06:52:51.134Z,-4.77
2019-01-24T06:55:24.769Z,-4.75
2019-01-24T06:57:54.270Z,-4.49
2019-01-24T07:00:23.938Z,-4.51
2019-01-24T07:02:53.279Z,-4.66
2019-01-24T07:05:22.622Z,-4.65
2019-01-24T07:07:51.985Z,-4.69
2019-01-24T07:10:23.839Z,-4.68
2019-01-24T07:12:53.483Z,-4.54
2019-01-24T07:15:23.915Z,-4.58
2019-01-24T07:17:53.998Z,-4.60
2019-01-24T07:20:23.351Z,-4.61
2019-01-24T07:22:53.256Z,-4.55
2019-01-24T07:25:26.055Z,-4.52
2019-01-24T07:27:55.374Z,-4.49
2019-01-24T07:30:25.000Z,-4.55
2019-01-24T07:32:54.619Z,-4.50
2019-01-24T07:35:24.337Z,-4.46
2019-01-24T07:37:54.038Z,-4.21
2019-01-24T07:40:23.781Z,-4.22
2019-01-24T07:42:53.109Z,-4.18
2019-01-24T07:45:50.944Z,-4.20
2019-01-24T07:48:20.254Z,-4.18
2019-01-24T07:50:49.915Z,-4.24
2019-01-24T07:53:19.627Z,-4.10
2019-01-24T07:55:49.226Z,-4.10
2019-01-24T07:58:18.560Z,-4.16
2019-01-24T08:00:48.329Z,-4.11
2019-01-24T08:03:17.764Z,-4.04
2019-01-24T08:05:47.140Z,-3.97
2019-01-24T08:08:16.495Z,-4.16
2019-01-24T08:10:46.231Z,-4.47
2019-01-24T08:13:15.632Z,-4.17
2019-01-24T08:15:45.783Z,-4.07
2019-01-24T08:18:15.229Z,-3.98
2019-01-24T08:20:44.634Z,-3.89
2019-01-24T08:23:13.981Z,-3.77
2019-01-24T08:25:44.899Z,-3.77
2019-01-24T08:28:14.659Z,-3.67
2019-01-24T08:30:44.447Z,-3.54
2019-01-24T08:33:14.107Z,-3.39
2019-01-24T08:35:43.742Z,-3.32
2019-01-24T08:38:13.096Z,-3.19
2019-01-24T08:40:42.443Z,-3.13
2019-01-24T08:43:11.791Z,-3.04
2019-01-24T08:45:41.150Z,-2.80
2019-01-24T08:48:10.483Z,-2.96
2019-01-24T08:50:39.840Z,-2.90
2019-01-24T08:53:09.575Z,-2.93
2019-01-24T08:55:40.088Z,-2.96
2019-01-24T08:58:09.847Z,-3.11
2019-01-24T09:00:39.615Z,-3.15
2019-01-24T09:03:09.332Z,-3.13
2019-01-24T09:05:39.048Z,-2.96
2019-01-24T09:08:08.757Z,-2.83
2019-01-24T09:10:38.977Z,-2.79
2019-01-24T09:13:08.310Z,-2.70
2019-01-24T09:15:37.694Z,-2.58
2019-01-24T09:18:07.397Z,-2.48
2019-01-24T09:20:37.068Z,-2.31
2019-01-24T09:23:06.572Z,-2.57
2019-01-24T09:28:03.149Z,-2.39
2019-01-24T09:30:32.846Z,-2.30
2019-01-24T09:33:02.200Z,-2.21
2019-01-24T09:35:31.518Z,-2.35
2019-01-24T09:38:01.158Z,-2.51
2019-01-24T09:40:30.865Z,-2.58
2019-01-24T09:43:00.187Z,-2.66
2019-01-24T09:45:30.418Z,-2.73
2019-01-24T09:48:00.029Z,-2.68
2019-01-24T09:50:30.119Z,-2.73
2019-01-24T09:52:59.816Z,-2.72
2019-01-24T09:55:29.546Z,-2.56
2019-01-24T09:57:59.236Z,-2.49
2019-01-24T10:00:34.416Z,-2.54
2019-01-24T10:03:04.379Z,-2.61
2019-01-24T10:05:33.727Z,-2.61
2019-01-24T10:08:03.386Z,-2.43
2019-01-24T10:10:32.710Z,-2.21
2019-01-24T10:13:02.090Z,-2.37
2019-01-24T10:15:31.806Z,-2.36
2019-01-24T10:18:01.139Z,-2.17
2019-01-24T10:20:30.800Z,-1.94
2019-01-24T10:23:00.158Z,-1.88
2019-01-24T10:25:35.480Z,-1.92
2019-01-24T10:28:05.144Z,-1.99
2019-01-24T10:30:34.850Z,-2.10
2019-01-24T10:33:04.185Z,-2.09
2019-01-24T10:35:33.598Z,-2.04
2019-01-24T10:38:03.311Z,-1.85
2019-01-24T10:40:33.897Z,-1.73
2019-01-24T10:43:03.255Z,-1.79
2019-01-24T10:45:32.637Z,-1.79
2019-01-24T10:48:02.302Z,-1.63
2019-01-24T10:50:32.119Z,-2.00
2019-01-24T10:53:01.456Z,-2.03
2019-01-24T10:55:31.129Z,-1.82
2019-01-24T10:58:01.528Z,-2.02
2019-01-24T11:00:39.152Z,-2.11
2019-01-24T11:03:11.613Z,-2.09
2019-01-24T11:05:41.259Z,-1.92
2019-01-24T11:08:10.801Z,-1.72
2019-01-24T11:10:40.440Z,-1.53
2019-01-24T11:13:10.149Z,-1.45
2019-01-24T11:15:39.866Z,-1.39
2019-01-24T11:18:09.190Z,-1.25
2019-01-24T11:20:38.534Z,-1.30
2019-01-24T11:23:07.940Z,-1.44
2019-01-24T11:25:37.588Z,-1.23
2019-01-24T11:28:06.924Z,-1.64
2019-01-24T11:30:36.581Z,-1.81
2019-01-24T11:33:06.489Z,-1.75
2019-01-24T11:35:42.181Z,-1.77
2019-01-24T11:38:12.162Z,-1.73
2019-01-24T11:40:41.889Z,-1.53
2019-01-24T11:43:11.676Z,-1.40
2019-01-24T11:45:41.948Z,-1.50
2019-01-24T11:48:11.863Z,-1.36
2019-01-24T11:50:41.399Z,-1.27
2019-01-24T11:53:11.052Z,-1.43
2019-01-24T11:55:40.736Z,-1.60
2019-01-24T11:58:10.477Z,-1.65
2019-01-24T12:00:42.172Z,-1.80
2019-01-24T12:03:11.922Z,-1.92
2019-01-24T12:05:41.524Z,-1.82
2019-01-24T12:08:11.111Z,-1.92
2019-01-24T12:10:40.849Z,-1.89
2019-01-24T12:13:10.544Z,-1.84
2019-01-24T12:15:39.897Z,-1.85
2019-01-24T12:18:09.222Z,-2.00
2019-01-24T12:20:38.618Z,-2.07
2019-01-24T12:23:07.965Z,-2.18
2019-01-24T12:25:37.639Z,-2.20
2019-01-24T12:28:07.014Z,-2.26
2019-01-24T12:30:37.719Z,-2.28
2019-01-24T12:33:07.090Z,-2.41
2019-01-24T12:35:36.809Z,-2.41
2019-01-24T12:38:06.197Z,-2.35
2019-01-24T12:40:35.566Z,-2.23
2019-01-24T12:43:05.000Z,-2.14
2019-01-24T12:45:38.294Z,-2.12
2019-01-24T12:48:08.097Z,-2.03
2019-01-24T12:50:37.806Z,-1.96
2019-01-24T12:53:07.833Z,-2.07
2019-01-24T12:55:37.420Z,-2.19
2019-01-24T12:58:06.759Z,-2.22
2019-01-24T13:00:37.750Z,-2.19
2019-01-24T13:03:07.080Z,-2.19
2019-01-24T13:05:36.469Z,-2.23
2019-01-24T13:08:06.188Z,-2.16
2019-01-24T13:10:35.876Z,-2.27
2019-01-24T13:13:05.441Z,-2.42
2019-01-24T13:15:34.847Z,-2.37
2019-01-24T13:18:04.864Z,-2.33
2019-01-24T13:20:34.231Z,-2.17
2019-01-24T13:23:03.837Z,-2.10
2019-01-24T13:25:34.660Z,-2.26
2019-01-24T13:28:04.545Z,-2.17
2019-01-24T13:30:35.260Z,-2.20
2019-01-24T13:33:05.075Z,-2.29
2019-01-24T13:35:34.915Z,-2.29
2019-01-24T13:38:04.429Z,-2.26
2019-01-24T13:40:33.773Z,-2.14
2019-01-24T13:43:03.413Z,-2.08
2019-01-24T13:45:35.675Z,-2.09
2019-01-24T13:48:05.299Z,-2.04
2019-01-24T13:50:34.916Z,-1.95
2019-01-24T13:53:04.262Z,-1.94
2019-01-24T13:55:33.627Z,-1.84
2019-01-24T13:58:04.046Z,-1.95
2019-01-24T14:00:36.110Z,-2.01
2019-01-24T14:03:15.460Z,-2.01
2019-01-24T14:05:45.142Z,-1.96
2019-01-24T14:08:14.649Z,-2.01
2019-01-24T14:10:43.973Z,-1.93
2019-01-24T14:13:13.757Z,-1.99
2019-01-24T14:15:43.499Z,-1.90
2019-01-24T14:18:12.846Z,-1.93
2019-01-24T14:20:42.503Z,-1.86
2019-01-24T14:23:11.815Z,-1.83
2019-01-24T14:25:41.144Z,-1.86
2019-01-24T14:28:10.779Z,-1.89
2019-01-24T14:30:40.476Z,-1.96
2019-01-24T14:33:09.805Z,-2.05
2019-01-24T14:35:39.134Z,-2.09
2019-01-24T14:38:09.512Z,-2.13
2019-01-24T14:40:39.216Z,-2.09
2019-01-24T14:43:08.567Z,-2.09
2019-01-24T14:45:38.648Z,-2.07
2019-01-24T14:48:08.570Z,-2.02
2019-01-24T14:50:38.523Z,-2.12
2019-01-24T14:53:08.208Z,-2.16
2019-01-24T14:55:37.577Z,-2.08
2019-01-24T14:58:07.173Z,-2.04
2019-01-24T15:00:44.449Z,-2.06
2019-01-24T15:03:13.774Z,-2.13
2019-01-24T15:05:43.118Z,-2.21
2019-01-24T15:08:12.999Z,-2.30
2019-01-24T15:10:42.457Z,-2.39
2019-01-24T15:13:11.839Z,-2.45
2019-01-24T15:15:41.448Z,-2.55
2019-01-24T15:18:11.059Z,-2.77
2019-01-24T15:20:40.745Z,-2.76
2019-01-24T15:23:10.420Z,-2.72
2019-01-24T15:25:39.774Z,-2.66
2019-01-24T15:28:09.507Z,-2.66
2019-01-24T15:30:39.141Z,-2.79
2019-01-24T15:33:08.575Z,-2.82
2019-01-24T15:35:37.912Z,-2.81
2019-01-24T15:38:07.256Z,-2.88
2019-01-24T15:40:37.008Z,-2.86
2019-01-24T15:43:06.601Z,-2.86
2019-01-24T15:45:36.217Z,-2.80
2019-01-24T15:48:06.576Z,-2.83
2019-01-24T15:50:36.063Z,-2.82
2019-01-24T15:53:05.770Z,-2.77
2019-01-24T15:55:35.144Z,-2.81
2019-01-24T15:58:04.923Z,-2.75
2019-01-24T16:00:35.307Z,-2.87
2019-01-24T16:03:06.196Z,-2.88
2019-01-24T16:05:35.872Z,-2.82
2019-01-24T16:08:06.000Z,-2.77
2019-01-24T16:10:35.796Z,-2.77
2019-01-24T16:13:05.491Z,-2.67
2019-01-24T16:15:39.300Z,-2.69
2019-01-24T16:18:09.585Z,-2.77
2019-01-24T16:20:39.450Z,-2.76
2019-01-24T16:23:08.798Z,-2.70
2019-01-24T16:25:53.480Z,-2.66
2019-01-24T16:28:24.859Z,-2.63
2019-01-24T16:30:54.426Z,-2.46
2019-01-24T16:33:23.782Z,-2.61
2019-01-24T16:35:53.493Z,-2.59
2019-01-24T16:38:25.610Z,-2.62
2019-01-24T16:40:55.287Z,-2.56
2019-01-24T16:43:24.752Z,-2.52
2019-01-24T16:45:54.565Z,-2.43
2019-01-24T16:48:23.927Z,-2.47
2019-01-24T16:50:53.838Z,-2.43
2019-01-24T16:53:35.307Z,-2.44
2019-01-24T16:56:30.828Z,-2.37
2019-01-24T16:59:10.193Z,-2.23
2019-01-24T17:01:39.689Z,-2.30
2019-01-24T17:04:09.055Z,-2.40
2019-01-24T17:06:38.449Z,-2.46
2019-01-24T17:09:09.711Z,-2.73
2019-01-24T17:11:39.234Z,-2.54
2019-01-24T17:14:08.594Z,-2.57
2019-01-24T17:16:38.303Z,-2.67
2019-01-24T17:19:08.695Z,-2.64
2019-01-24T17:21:38.214Z,-2.65
2019-01-24T17:24:07.588Z,-2.64
2019-01-24T17:26:37.016Z,-2.70
2019-01-24T17:29:06.684Z,-2.78
2019-01-24T17:31:36.477Z,-2.69
2019-01-24T17:34:09.116Z,-2.69
2019-01-24T17:36:38.575Z,-2.81
2019-01-24T17:39:09.685Z,-2.93
2019-01-24T17:41:39.050Z,-2.92
2019-01-24T17:44:08.804Z,-2.99
2019-01-24T17:46:38.115Z,-2.97
2019-01-24T17:49:07.750Z,-3.02
2019-01-24T17:51:37.405Z,-3.04
2019-01-24T17:54:06.757Z,-2.95
2019-01-24T17:56:36.336Z,-2.93
2019-01-24T17:59:05.856Z,-2.90
2019-01-24T18:01:35.515Z,-2.94
2019-01-24T18:04:05.151Z,-2.88
2019-01-24T18:06:34.511Z,-2.88
2019-01-24T18:09:05.506Z,-3.04
2019-01-24T18:11:35.082Z,-2.94
2019-01-24T18:14:04.986Z,-2.94
2019-01-24T18:16:34.361Z,-2.91
2019-01-24T18:19:04.113Z,-2.95
2019-01-24T18:21:33.462Z,-2.95
2019-01-24T18:24:03.089Z,-2.93
2019-01-24T18:26:32.474Z,-2.91
2019-01-24T18:29:02.058Z,-2.96
2019-01-24T18:31:31.685Z,-2.96
2019-01-24T18:34:01.328Z,-2.84
2019-01-24T18:36:30.911Z,-2.96
2019-01-24T18:39:00.346Z,-3.04
2019-01-24T18:41:29.697Z,-3.08
2019-01-24T18:43:59.296Z,-2.97
2019-01-24T18:46:28.732Z,-2.94
2019-01-24T18:48:58.070Z,-3.10
2019-01-24T18:51:27.511Z,-3.07
2019-01-24T18:53:57.187Z,-3.03
2019-01-24T18:56:26.786Z,-3.06
2019-01-24T18:58:56.471Z,-3.12
2019-01-24T19:01:25.856Z,-3.08
2019-01-24T19:03:55.212Z,-2.90
2019-01-24T19:06:24.622Z,-2.78
2019-01-24T19:08:54.304Z,-2.71
2019-01-24T19:11:23.920Z,-2.79
2019-01-24T19:13:53.278Z,-2.78
2019-01-24T19:16:23.025Z,-2.86
2019-01-24T19:18:52.333Z,-3.23
2019-01-24T19:21:21.998Z,-2.82
2019-01-24T19:23:52.019Z,-2.90
2019-01-24T19:26:21.460Z,-3.15
2019-01-24T19:28:50.810Z,-3.14
2019-01-24T19:31:20.204Z,-3.18
2019-01-24T19:33:49.901Z,-3.12
2019-01-24T19:36:20.777Z,-3.20
2019-01-24T19:38:53.209Z,-3.16
2019-01-24T19:41:21.860Z,-2.98
2019-01-24T19:43:51.177Z,-2.99
2019-01-24T19:46:20.540Z,-2.88
2019-01-24T19:48:50.187Z,-2.82
2019-01-24T19:51:19.789Z,-2.80
2019-01-24T19:53:49.167Z,-2.88
2019-01-24T19:56:18.867Z,-2.83
2019-01-24T19:58:48.475Z,-2.86
2019-01-24T20:01:18.122Z,-2.80
2019-01-24T20:03:47.493Z,-2.82
2019-01-24T20:06:17.100Z,-2.89
2019-01-24T20:08:46.511Z,-2.99
2019-01-24T20:11:15.867Z,-2.99
2019-01-24T20:13:45.343Z,-2.87
2019-01-24T20:16:14.798Z,-2.90
2019-01-24T20:18:44.395Z,-2.87
2019-01-24T20:21:14.021Z,-2.82
2019-01-24T20:23:43.425Z,-2.81
2019-01-24T20:26:13.014Z,-2.78
2019-01-24T20:28:42.618Z,-2.68
2019-01-24T20:31:12.248Z,-2.67
2019-01-24T20:33:41.603Z,-2.78
2019-01-24T20:36:11.234Z,-2.77
2019-01-24T20:38:40.842Z,-2.75
2019-01-24T20:41:10.512Z,-2.74
2019-01-24T20:43:40.139Z,-2.66
2019-01-24T20:46:09.492Z,-2.80
2019-01-24T20:48:38.836Z,-2.77
2019-01-24T20:51:08.537Z,-2.81
2019-01-24T20:53:37.840Z,-2.75
2019-01-24T20:56:07.209Z,-2.83
2019-01-24T20:58:36.882Z,-2.80
2019-01-24T21:01:06.518Z,-2.90
2019-01-24T21:03:36.127Z,-2.89
2019-01-24T21:06:05.914Z,-2.95
2019-01-24T21:08:35.619Z,-2.98
2019-01-24T21:11:04.990Z,-3.07
2019-01-24T21:13:34.662Z,-3.12
2019-01-24T21:16:04.282Z,-3.04
2019-01-24T21:18:33.668Z,-2.94
2019-01-24T21:21:03.320Z,-2.92
2019-01-24T21:23:32.928Z,-2.78
2019-01-24T21:26:02.559Z,-2.74
2019-01-24T21:28:34.993Z,-2.74
2019-01-24T21:31:04.582Z,-2.73
2019-01-24T21:33:34.217Z,-2.72
2019-01-24T21:36:03.833Z,-2.68
2019-01-24T21:38:33.529Z,-2.74
2019-01-24T21:41:02.861Z,-2.79
2019-01-24T21:43:32.283Z,-2.89
2019-01-24T21:46:01.895Z,-2.82
2019-01-24T21:48:32.628Z,-2.81
2019-01-24T21:51:02.027Z,-2.80
2019-01-24T21:53:31.627Z,-2.57
2019-01-24T21:56:01.239Z,-2.52
2019-01-24T21:58:30.839Z,-2.54
2019-01-24T22:01:00.447Z,-2.66
2019-01-24T22:03:30.051Z,-2.68
2019-01-24T22:05:59.688Z,-2.77
2019-01-24T22:08:29.313Z,-2.78
2019-01-24T22:10:58.988Z,-2.68
2019-01-24T22:13:28.600Z,-2.65
2019-01-24T22:15:57.957Z,-2.61
2019-01-24T22:18:27.537Z,-2.73
2019-01-24T22:20:57.136Z,-2.74
2019-01-24T22:23:26.787Z,-2.73
2019-01-24T22:25:56.424Z,-2.76
2019-01-24T22:28:26.888Z,-2.77
2019-01-24T22:30:57.797Z,-2.76
2019-01-24T22:33:27.413Z,-2.78
2019-01-24T22:35:56.790Z,-2.85
2019-01-24T22:38:26.160Z,-2.75
2019-01-24T22:40:55.571Z,-2.77
2019-01-24T22:43:25.167Z,-2.75
2019-01-24T22:45:54.497Z,-2.83
2019-01-24T22:48:24.116Z,-2.82
2019-01-24T22:50:53.732Z,-2.82
2019-01-24T22:53:23.338Z,-2.77
2019-01-24T22:55:52.917Z,-2.76
2019-01-24T22:58:22.552Z,-2.78
2019-01-24T23:01:05.645Z,-2.82
2019-01-24T23:03:39.948Z,-2.71
2019-01-24T23:06:09.502Z,-2.71
2019-01-24T23:08:38.861Z,-2.65
2019-01-24T23:11:08.204Z,-2.75
2019-01-24T23:13:37.576Z,-2.80
2019-01-24T23:16:07.239Z,-2.87
2019-01-24T23:18:36.916Z,-2.92
2019-01-24T23:21:06.306Z,-2.83
2019-01-24T23:23:35.647Z,-2.88
2019-01-24T23:26:05.076Z,-2.86
2019-01-24T23:28:34.703Z,-2.87
2019-01-24T23:31:04.376Z,-2.82
2019-01-24T23:33:33.747Z,-2.89
2019-01-24T23:36:03.090Z,-2.81
2019-01-24T23:38:32.444Z,-2.83
2019-01-24T23:41:01.783Z,-2.86
2019-01-24T23:43:31.409Z,-3.28
2019-01-24T23:46:00.996Z,-2.80
2019-01-24T23:48:30.601Z,-2.77
2019-01-24T23:51:00.180Z,-2.83
2019-01-24T23:53:29.528Z,-2.88
2019-01-24T23:55:59.201Z,-2.91
2019-01-24T23:58:28.561Z,-2.87
